createdAt,value
2022-10-31T00:00:56.146Z,99751.25
2022-10-31T00:03:23.597Z,99753.22
2022-10-31T00:05:51.037Z,99743.50
2022-10-31T00:08:18.162Z,99753.22
2022-10-31T00:10:45.917Z,99752.31
2022-10-31T00:13:14.198Z,99758.69
2022-10-31T00:15:41.741Z,99751.91
2022-10-31T00:18:09.437Z,99751.03
2022-10-31T00:20:36.698Z,99754.22
2022-10-31T00:23:04.157Z,99754.69
2022-10-31T00:25:34.099Z,99755.06
2022-10-31T00:28:01.519Z,99742.31
2022-10-31T00:30:29.467Z,99751.44
2022-10-31T00:32:57.133Z,99748.94
2022-10-31T00:35:24.484Z,99734.56
2022-10-31T00:37:52.865Z,99732.69
2022-10-31T00:40:20.609Z,99728.63
2022-10-31T00:42:47.753Z,99731.91
2022-10-31T00:45:15.006Z,99735.16
2022-10-31T00:47:42.418Z,99733.69
2022-10-31T00:50:09.636Z,99733.38
2022-10-31T00:52:38.507Z,99726.50
2022-10-31T00:55:05.985Z,99724.84
2022-10-31T00:57:33.123Z,99723.88
2022-10-31T01:00:00.315Z,99729.31
2022-10-31T01:02:29.377Z,99732.28
2022-10-31T01:04:56.654Z,99718.00
2022-10-31T01:07:23.787Z,99724.38
2022-10-31T01:09:51.226Z,99722.81
2022-10-31T01:12:19.465Z,99733.09
2022-10-31T01:14:46.720Z,99720.69
2022-10-31T01:17:14.538Z,99719.63
2022-10-31T01:19:41.691Z,99726.19
2022-10-31T01:22:08.827Z,99722.41
2022-10-31T01:24:36.221Z,99722.34
2022-10-31T01:27:03.532Z,99726.31
2022-10-31T01:29:32.696Z,99715.06
2022-10-31T01:32:00.192Z,99719.78
2022-10-31T01:34:27.329Z,99716.47
2022-10-31T01:36:55.211Z,99712.47
2022-10-31T01:39:23.242Z,99718.56
2022-10-31T01:41:51.435Z,99719.03
2022-10-31T01:44:18.575Z,99712.41
2022-10-31T01:47:04.953Z,99711.28
2022-10-31T01:49:33.671Z,99710.84
2022-10-31T01:52:16.505Z,99712.47
2022-10-31T01:54:46.381Z,99706.78
2022-10-31T01:57:13.916Z,99717.31
2022-10-31T01:59:41.806Z,99714.69
2022-10-31T02:02:09.181Z,99709.72
2022-10-31T02:04:36.706Z,99711.37
2022-10-31T02:07:08.795Z,99709.22
2022-10-31T02:09:35.978Z,99707.12
2022-10-31T02:12:03.522Z,99702.41
2022-10-31T02:14:30.765Z,99703.87
2022-10-31T02:16:58.416Z,99709.44
2022-10-31T02:19:28.768Z,99702.53
2022-10-31T02:22:14.658Z,99702.19
2022-10-31T02:24:52.037Z,99699.06
2022-10-31T02:27:34.743Z,99703.41
2022-10-31T02:30:12.554Z,99695.66
2022-10-31T02:33:01.201Z,99703.72
2022-10-31T02:35:35.573Z,99698.00
2022-10-31T02:38:20.984Z,99704.50
2022-10-31T02:40:49.597Z,99706.78
2022-10-31T02:43:21.377Z,99704.03
2022-10-31T02:46:06.903Z,99713.34
2022-10-31T02:48:36.240Z,99708.84
2022-10-31T02:51:03.985Z,99710.87
2022-10-31T02:53:35.070Z,99717.38
2022-10-31T02:56:07.169Z,99715.09
2022-10-31T02:58:35.811Z,99717.78
2022-10-31T03:01:22.290Z,99719.37
2022-10-31T03:03:53.320Z,99712.94
2022-10-31T03:06:25.559Z,99713.38
2022-10-31T03:08:58.106Z,99716.69
2022-10-31T03:11:25.499Z,99710.25
2022-10-31T03:13:55.718Z,99708.34
2022-10-31T03:16:23.462Z,99707.84
2022-10-31T03:18:51.720Z,99708.88
2022-10-31T03:21:23.769Z,99719.19
2022-10-31T03:23:52.679Z,99718.75
2022-10-31T03:26:20.678Z,99719.63
2022-10-31T03:28:50.602Z,99720.78
2022-10-31T03:31:18.041Z,99726.28
2022-10-31T03:33:45.577Z,99724.84
2022-10-31T03:36:13.095Z,99723.19
2022-10-31T03:38:40.842Z,99731.19
2022-10-31T03:41:08.895Z,99731.47
2022-10-31T03:43:37.697Z,99728.81
2022-10-31T03:46:04.868Z,99724.25
2022-10-31T03:48:32.755Z,99722.78
2022-10-31T03:50:59.877Z,99725.50
2022-10-31T03:53:48.561Z,99723.56
2022-10-31T03:56:23.735Z,99734.03
2022-10-31T03:58:56.774Z,99730.59
2022-10-31T04:01:24.354Z,99729.91
2022-10-31T04:03:51.853Z,99732.69
2022-10-31T04:06:19.233Z,99747.44
2022-10-31T04:08:47.853Z,99737.19
2022-10-31T04:11:15.505Z,99737.91
2022-10-31T04:13:42.898Z,99743.41
2022-10-31T04:16:14.176Z,99749.63
2022-10-31T04:18:44.606Z,99750.81
2022-10-31T04:21:11.807Z,99745.00
2022-10-31T04:23:38.955Z,99747.41
2022-10-31T04:26:08.792Z,99748.22
2022-10-31T04:28:35.916Z,99755.28
2022-10-31T04:31:03.182Z,99752.13
2022-10-31T04:33:30.751Z,99760.34
2022-10-31T04:35:57.913Z,99743.28
2022-10-31T04:38:25.085Z,99760.38
2022-10-31T04:40:53.480Z,99749.59
2022-10-31T04:43:21.315Z,99759.69
2022-10-31T04:45:48.513Z,99769.22
2022-10-31T04:48:15.969Z,99771.03
2022-10-31T04:50:43.378Z,99766.66
2022-10-31T04:53:10.541Z,99763.72
2022-10-31T04:55:38.960Z,99764.69
2022-10-31T04:58:09.599Z,99753.56
2022-10-31T05:00:37.397Z,99755.16
2022-10-31T05:03:05.440Z,99760.78
2022-10-31T05:05:33.187Z,99760.75
2022-10-31T05:08:00.549Z,99762.88
2022-10-31T05:10:29.822Z,99763.59
2022-10-31T05:13:00.066Z,99770.81
2022-10-31T05:15:30.054Z,99763.56
2022-10-31T05:18:01.232Z,99763.81
2022-10-31T05:20:30.221Z,99765.97
2022-10-31T05:22:59.171Z,99761.22
2022-10-31T05:25:27.595Z,99760.66
2022-10-31T05:27:55.808Z,99756.78
2022-10-31T05:30:24.202Z,99753.31
2022-10-31T05:32:51.644Z,99764.31
2022-10-31T05:35:28.314Z,99769.75
2022-10-31T05:37:58.680Z,99767.75
2022-10-31T05:40:26.891Z,99757.47
2022-10-31T05:42:54.875Z,99755.78
2022-10-31T05:45:22.970Z,99761.66
2022-10-31T05:47:58.300Z,99764.22
2022-10-31T05:50:28.535Z,99781.31
2022-10-31T05:53:01.090Z,99777.03
2022-10-31T05:55:29.000Z,99773.75
2022-10-31T05:57:58.068Z,99780.13
2022-10-31T06:00:25.759Z,99782.69
2022-10-31T06:03:18.860Z,99784.31
2022-10-31T06:05:50.628Z,99784.78
2022-10-31T06:08:21.414Z,99789.34
2022-10-31T06:10:49.406Z,99776.25
2022-10-31T06:13:18.326Z,99795.47
2022-10-31T06:15:45.633Z,99787.53
2022-10-31T06:18:13.426Z,99783.31
2022-10-31T06:20:44.213Z,99788.00
2022-10-31T06:23:11.630Z,99798.72
2022-10-31T06:25:39.381Z,99781.34
2022-10-31T06:28:06.558Z,99789.47
2022-10-31T06:30:34.555Z,99792.50
2022-10-31T06:33:03.183Z,99786.22
2022-10-31T06:35:30.695Z,99778.66
2022-10-31T06:37:57.974Z,99790.81
2022-10-31T06:40:27.547Z,99781.16
2022-10-31T06:43:00.696Z,99775.78
2022-10-31T06:45:28.442Z,99788.28
2022-10-31T06:50:50.541Z,99792.12
2022-10-31T06:53:17.721Z,99805.03
2022-10-31T06:55:44.907Z,99814.97
2022-10-31T06:58:13.627Z,99807.06
2022-10-31T07:00:41.081Z,99817.87
2022-10-31T07:03:10.718Z,99816.19
2022-10-31T07:05:38.598Z,99815.03
2022-10-31T07:08:07.445Z,99823.56
2022-10-31T07:10:39.107Z,99822.03
2022-10-31T07:13:13.021Z,99826.37
2022-10-31T07:15:41.124Z,99828.72
2022-10-31T07:18:09.381Z,99824.00
2022-10-31T07:20:36.583Z,99831.72
2022-10-31T07:23:04.407Z,99821.06
2022-10-31T07:25:32.513Z,99824.56
2022-10-31T07:28:01.664Z,99840.44
2022-10-31T07:30:29.231Z,99846.66
2022-10-31T07:32:56.751Z,99835.72
2022-10-31T07:35:26.442Z,99848.69
2022-10-31T07:37:54.005Z,99844.78
2022-10-31T07:40:21.795Z,99844.88
2022-10-31T07:42:49.647Z,99842.88
2022-10-31T07:45:28.647Z,99837.44
2022-10-31T07:47:58.714Z,99842.13
2022-10-31T07:50:35.328Z,99833.53
2022-10-31T07:53:06.511Z,99837.53
2022-10-31T07:55:35.067Z,99833.53
2022-10-31T07:58:18.486Z,99828.59
2022-10-31T08:00:46.132Z,99823.81
2022-10-31T08:03:15.598Z,99823.28
2022-10-31T08:05:46.953Z,99833.81
2022-10-31T08:08:16.560Z,99837.78
2022-10-31T08:10:44.102Z,99836.28
2022-10-31T08:13:12.174Z,99836.84
2022-10-31T08:15:42.451Z,99838.47
2022-10-31T08:18:13.460Z,99835.63
2022-10-31T08:20:41.619Z,99830.50
2022-10-31T08:23:10.516Z,99845.84
2022-10-31T08:25:39.310Z,99845.78
2022-10-31T08:28:07.392Z,99845.00
2022-10-31T08:30:35.508Z,99851.41
2022-10-31T08:33:11.265Z,99853.69
2022-10-31T08:35:43.164Z,99843.09
2022-10-31T08:38:12.832Z,99837.47
2022-10-31T08:40:40.641Z,99840.03
2022-10-31T08:43:11.975Z,99834.78
2022-10-31T08:45:39.525Z,99839.56
2022-10-31T08:48:10.426Z,99828.41
2022-10-31T08:50:38.070Z,99827.50
2022-10-31T08:53:08.299Z,99836.94
2022-10-31T08:55:36.427Z,99842.22
2022-10-31T08:58:04.705Z,99845.59
2022-10-31T09:00:35.544Z,99845.97
2022-10-31T09:03:04.258Z,99843.59
2022-10-31T09:05:32.703Z,99846.16
2022-10-31T09:08:01.467Z,99846.66
2022-10-31T09:10:29.226Z,99853.25
2022-10-31T09:13:00.082Z,99858.19
2022-10-31T09:15:30.104Z,99853.00
2022-10-31T09:17:57.944Z,99855.22
2022-10-31T09:20:27.197Z,99860.38
2022-10-31T09:22:58.397Z,99857.16
2022-10-31T09:25:25.717Z,99857.53
2022-10-31T09:27:58.723Z,99861.84
2022-10-31T09:30:27.076Z,99856.31
2022-10-31T09:32:58.414Z,99857.75
2022-10-31T09:35:26.177Z,99859.16
2022-10-31T09:37:56.040Z,99857.34
2022-10-31T09:40:24.225Z,99858.91
2022-10-31T09:42:54.465Z,99865.41
2022-10-31T09:45:40.489Z,99866.81
2022-10-31T09:48:08.552Z,99866.31
2022-10-31T09:50:43.844Z,99868.19
2022-10-31T09:53:32.448Z,99861.50
2022-10-31T09:55:59.912Z,99860.59
2022-10-31T09:58:28.836Z,99858.88
2022-10-31T10:00:57.451Z,99851.06
2022-10-31T10:03:33.134Z,99858.97
2022-10-31T10:06:16.570Z,99860.06
2022-10-31T10:08:46.363Z,99861.88
2022-10-31T10:11:27.045Z,99857.88
2022-10-31T10:14:01.149Z,99862.94
2022-10-31T10:16:41.154Z,99847.63
2022-10-31T10:19:08.496Z,99847.53
2022-10-31T10:21:43.419Z,99859.13
2022-10-31T10:24:10.752Z,99853.97
2022-10-31T10:26:38.797Z,99847.03
2022-10-31T10:29:22.345Z,99847.53
2022-10-31T10:31:49.956Z,99838.00
2022-10-31T10:34:21.634Z,99850.72
2022-10-31T10:36:51.456Z,99847.69
2022-10-31T10:39:19.844Z,99845.25
2022-10-31T10:42:08.652Z,99849.72
2022-10-31T10:44:58.150Z,99835.91
2022-10-31T10:47:38.078Z,99840.72
2022-10-31T10:50:08.357Z,99835.78
2022-10-31T10:52:54.019Z,99845.91
2022-10-31T10:55:24.294Z,99840.00
2022-10-31T10:57:56.812Z,99839.06
2022-10-31T11:00:28.802Z,99841.53
2022-10-31T11:02:55.979Z,99830.12
2022-10-31T11:05:43.443Z,99843.13
2022-10-31T11:08:10.606Z,99837.53
2022-10-31T11:10:38.028Z,99830.12
2022-10-31T11:13:19.727Z,99835.97
2022-10-31T11:15:52.133Z,99840.03
2022-10-31T11:20:58.042Z,99830.56
2022-10-31T11:23:25.919Z,99830.34
2022-10-31T11:26:03.249Z,99818.94
2022-10-31T11:28:31.115Z,99826.06
2022-10-31T11:31:08.518Z,99824.88
2022-10-31T11:33:40.550Z,99817.47
2022-10-31T11:36:17.556Z,99822.72
2022-10-31T11:38:44.971Z,99822.81
2022-10-31T11:41:12.037Z,99821.56
2022-10-31T11:43:39.294Z,99824.72
2022-10-31T11:46:10.770Z,99818.25
2022-10-31T11:48:37.933Z,99820.13
2022-10-31T11:51:05.615Z,99820.09
2022-10-31T11:53:33.876Z,99817.53
2022-10-31T11:56:02.306Z,99822.47
2022-10-31T11:58:29.427Z,99816.03
2022-10-31T12:00:57.298Z,99814.00
2022-10-31T12:03:24.764Z,99822.91
2022-10-31T12:05:56.707Z,99817.00
2022-10-31T12:08:23.805Z,99813.88
2022-10-31T12:10:54.335Z,99819.75
2022-10-31T12:13:41.350Z,99808.44
2022-10-31T12:16:17.862Z,99816.38
2022-10-31T12:18:44.906Z,99811.09
2022-10-31T12:21:29.088Z,99814.28
2022-10-31T12:24:06.243Z,99811.78
2022-10-31T12:26:33.586Z,99812.84
2022-10-31T12:29:09.330Z,99806.62
2022-10-31T12:31:43.089Z,99806.12
2022-10-31T12:34:40.993Z,99812.44
2022-10-31T12:37:12.916Z,99804.09
2022-10-31T12:39:39.984Z,99801.38
2022-10-31T12:42:13.244Z,99801.75
2022-10-31T12:44:59.412Z,99810.75
2022-10-31T12:47:33.921Z,99809.56
2022-10-31T12:50:13.366Z,99810.63
2022-10-31T12:52:44.337Z,99803.16
2022-10-31T12:55:30.215Z,99802.41
2022-10-31T12:58:04.783Z,99809.56
2022-10-31T13:00:32.429Z,99810.47
2022-10-31T13:03:11.235Z,99801.56
2022-10-31T13:05:40.236Z,99800.69
2022-10-31T13:08:10.723Z,99804.25
2022-10-31T13:10:39.236Z,99793.50
2022-10-31T13:13:11.283Z,99798.69
2022-10-31T13:15:46.993Z,99795.69
2022-10-31T13:18:16.413Z,99797.38
2022-10-31T13:20:44.481Z,99796.28
2022-10-31T13:23:48.577Z,99796.25
2022-10-31T13:26:10.832Z,99789.59
2022-10-31T13:28:41.356Z,99803.94
2022-10-31T13:31:09.192Z,99797.84
2022-10-31T13:33:40.431Z,99782.34
2022-10-31T13:36:16.911Z,99786.81
2022-10-31T13:38:48.221Z,99783.41
2022-10-31T13:41:23.254Z,99786.69
2022-10-31T13:43:56.628Z,99780.41
2022-10-31T13:46:32.797Z,99784.47
2022-10-31T13:49:00.406Z,99789.25
2022-10-31T13:51:31.699Z,99792.81
2022-10-31T13:54:02.930Z,99793.94
2022-10-31T13:56:31.226Z,99787.22
2022-10-31T13:59:02.452Z,99787.28
2022-10-31T14:01:30.540Z,99785.91
2022-10-31T14:04:13.003Z,99789.47
2022-10-31T14:06:46.524Z,99784.78
2022-10-31T14:09:18.964Z,99784.34
2022-10-31T14:11:47.651Z,99786.06
2022-10-31T14:14:15.001Z,99783.56
2022-10-31T14:16:43.183Z,99780.75
2022-10-31T14:19:19.979Z,99781.03
2022-10-31T14:21:50.781Z,99780.31
2022-10-31T14:24:24.640Z,99785.03
2022-10-31T14:26:52.987Z,99779.81
2022-10-31T14:29:22.215Z,99782.91
2022-10-31T14:31:52.275Z,99779.91
2022-10-31T14:34:20.306Z,99780.50
2022-10-31T14:36:51.166Z,99786.50
2022-10-31T14:39:19.312Z,99781.50
2022-10-31T14:42:06.815Z,99788.00
2022-10-31T14:44:46.290Z,99782.22
2022-10-31T14:47:25.812Z,99780.91
2022-10-31T14:50:08.082Z,99785.81
2022-10-31T14:52:36.839Z,99793.97
2022-10-31T14:55:04.051Z,99777.91
2022-10-31T14:57:32.426Z,99788.25
2022-10-31T15:00:06.127Z,99785.41
2022-10-31T15:02:37.588Z,99780.03
2022-10-31T15:05:08.945Z,99775.22
2022-10-31T15:07:37.579Z,99780.56
2022-10-31T15:10:07.004Z,99785.00
2022-10-31T15:12:35.430Z,99784.09
2022-10-31T15:15:16.121Z,99770.91
2022-10-31T15:17:50.192Z,99775.31
2022-10-31T15:20:22.028Z,99778.28
2022-10-31T15:22:49.403Z,99780.00
2022-10-31T15:25:21.083Z,99780.97
2022-10-31T15:27:48.819Z,99780.41
2022-10-31T15:30:19.513Z,99792.16
2022-10-31T15:32:55.322Z,99783.38
2022-10-31T15:35:26.809Z,99783.38
2022-10-31T15:37:54.143Z,99775.44
2022-10-31T15:40:22.564Z,99784.22
2022-10-31T15:42:57.557Z,99783.91
2022-10-31T15:45:25.355Z,99783.25
2022-10-31T15:48:00.016Z,99791.12
2022-10-31T15:50:33.508Z,99789.06
2022-10-31T15:53:01.291Z,99791.31
2022-10-31T15:55:29.365Z,99792.12
2022-10-31T15:58:00.338Z,99795.00
2022-10-31T16:00:35.865Z,99791.41
2022-10-31T16:03:06.037Z,99789.59
2022-10-31T16:05:37.490Z,99798.19
2022-10-31T16:08:05.091Z,99797.69
2022-10-31T16:10:33.988Z,99803.56
2022-10-31T16:13:01.267Z,99793.66
2022-10-31T16:15:28.890Z,99796.78
2022-10-31T16:18:01.348Z,99802.19
2022-10-31T16:20:29.820Z,99802.16
2022-10-31T16:22:56.946Z,99798.16
2022-10-31T16:25:26.639Z,99804.34
2022-10-31T16:27:54.796Z,99813.44
2022-10-31T16:30:36.869Z,99811.97
2022-10-31T16:33:04.634Z,99805.72
2022-10-31T16:35:36.041Z,99813.03
2022-10-31T16:38:03.600Z,99823.66
2022-10-31T16:40:30.919Z,99819.25
2022-10-31T16:42:58.878Z,99821.03
2022-10-31T16:45:27.249Z,99827.00
2022-10-31T16:47:54.502Z,99819.94
2022-10-31T16:50:23.103Z,99825.09
2022-10-31T16:55:45.950Z,99840.28
2022-10-31T16:58:17.680Z,99839.38
2022-10-31T17:00:45.010Z,99839.25
2022-10-31T17:03:12.218Z,99832.41
2022-10-31T17:05:39.631Z,99837.50
2022-10-31T17:08:06.834Z,99837.66
2022-10-31T17:10:34.738Z,99838.53
2022-10-31T17:13:03.872Z,99837.69
2022-10-31T17:15:33.930Z,99840.94
2022-10-31T17:18:01.770Z,99839.41
2022-10-31T17:20:30.053Z,99841.87
2022-10-31T17:22:57.623Z,99840.03
2022-10-31T17:25:26.201Z,99843.63
2022-10-31T17:27:53.411Z,99840.00
2022-10-31T17:30:21.113Z,99841.97
2022-10-31T17:32:48.751Z,99839.38
2022-10-31T17:35:16.289Z,99846.41
2022-10-31T17:37:43.976Z,99836.69
2022-10-31T17:40:11.968Z,99849.88
2022-10-31T17:42:39.155Z,99845.53
2022-10-31T17:45:06.962Z,99855.06
2022-10-31T17:47:34.909Z,99845.47
2022-10-31T17:50:02.142Z,99838.19
2022-10-31T17:52:29.594Z,99839.03
2022-10-31T17:54:57.145Z,99839.34
2022-10-31T17:57:24.369Z,99845.34
2022-10-31T17:59:51.740Z,99838.47
2022-10-31T18:02:19.383Z,99846.41
2022-10-31T18:04:47.213Z,99837.38
2022-10-31T18:07:21.003Z,99830.34
2022-10-31T18:09:48.448Z,99830.06
2022-10-31T18:12:15.952Z,99829.69
2022-10-31T18:14:48.407Z,99835.13
2022-10-31T18:17:16.215Z,99832.78
2022-10-31T18:19:43.356Z,99825.69
2022-10-31T18:22:10.541Z,99843.78
2022-10-31T18:24:38.043Z,99843.78
2022-10-31T18:27:05.384Z,99840.28
2022-10-31T18:29:33.046Z,99853.09
2022-10-31T18:32:03.221Z,99837.66
2022-10-31T18:34:32.724Z,99841.13
2022-10-31T18:36:59.989Z,99844.59
2022-10-31T18:39:27.730Z,99843.78
2022-10-31T18:41:54.977Z,99846.88
2022-10-31T18:44:22.659Z,99844.59
2022-10-31T18:46:50.063Z,99834.13
2022-10-31T18:49:22.480Z,99844.66
2022-10-31T18:51:50.376Z,99838.53
2022-10-31T18:54:17.687Z,99842.03
2022-10-31T18:56:45.086Z,99848.97
2022-10-31T18:59:12.862Z,99841.97
2022-10-31T19:01:40.636Z,99845.44
2022-10-31T19:04:08.380Z,99839.41
2022-10-31T19:06:35.821Z,99847.22
2022-10-31T19:09:04.954Z,99842.88
2022-10-31T19:11:32.796Z,99832.44
2022-10-31T19:14:00.286Z,99841.06
2022-10-31T19:16:27.981Z,99844.66
2022-10-31T19:19:00.122Z,99842.00
2022-10-31T19:21:27.930Z,99830.59
2022-10-31T19:23:56.492Z,99832.34
2022-10-31T19:26:25.306Z,99830.56
2022-10-31T19:28:52.925Z,99830.69
2022-10-31T19:31:20.332Z,99847.87
2022-10-31T19:33:48.043Z,99842.91
2022-10-31T19:36:16.573Z,99840.31
2022-10-31T19:38:44.186Z,99844.56
2022-10-31T19:41:12.519Z,99850.56
2022-10-31T19:43:40.260Z,99846.34
2022-10-31T19:46:09.081Z,99837.66
2022-10-31T19:48:39.119Z,99839.44
2022-10-31T19:51:07.920Z,99835.03
2022-10-31T19:53:35.721Z,99840.28
2022-10-31T19:56:03.409Z,99835.03
2022-10-31T19:58:32.000Z,99839.25
2022-10-31T20:03:33.747Z,99843.78
2022-10-31T20:06:04.957Z,99831.41
2022-10-31T20:08:37.051Z,99842.53
2022-10-31T20:11:06.824Z,99834.19
2022-10-31T20:13:34.789Z,99841.09
2022-10-31T20:16:03.759Z,99842.91
2022-10-31T20:18:31.425Z,99850.69
2022-10-31T20:21:06.081Z,99845.34
2022-10-31T20:23:33.704Z,99849.91
2022-10-31T20:26:01.129Z,99848.09
2022-10-31T20:28:29.854Z,99851.59
2022-10-31T20:30:57.159Z,99851.56
2022-10-31T20:33:24.534Z,99851.63
2022-10-31T20:35:51.725Z,99860.31
2022-10-31T20:38:18.968Z,99860.31
2022-10-31T20:40:46.373Z,99855.09
2022-10-31T20:43:14.930Z,99854.22
2022-10-31T20:45:42.616Z,99849.03
2022-10-31T20:48:10.072Z,99854.25
2022-10-31T20:50:38.174Z,99852.44
2022-10-31T20:53:07.373Z,99861.91
2022-10-31T20:55:34.841Z,99858.56
2022-10-31T20:58:01.999Z,99855.06
2022-10-31T21:00:29.388Z,99849.91
2022-10-31T21:02:56.858Z,99853.38
2022-10-31T21:05:24.417Z,99853.22
2022-10-31T21:10:24.264Z,99861.03
2022-10-31T21:12:51.369Z,99859.28
2022-10-31T21:15:18.813Z,99855.06
2022-10-31T21:17:46.232Z,99843.75
2022-10-31T21:20:14.097Z,99844.66
2022-10-31T21:22:41.281Z,99849.00
2022-10-31T21:25:08.987Z,99848.16
2022-10-31T21:27:36.560Z,99847.25
2022-10-31T21:30:22.484Z,99844.47
2022-10-31T21:32:49.883Z,99841.84
2022-10-31T21:35:16.985Z,99833.16
2022-10-31T21:37:44.184Z,99843.78
2022-10-31T21:40:11.730Z,99835.81
2022-10-31T21:42:38.875Z,99835.91
2022-10-31T21:45:06.071Z,99835.03
2022-10-31T21:47:33.437Z,99838.47
2022-10-31T21:50:00.539Z,99831.56
2022-10-31T21:52:27.663Z,99837.47
2022-10-31T21:54:55.024Z,99827.19
2022-10-31T21:59:54.419Z,99823.72
2022-10-31T22:02:21.509Z,99810.59
2022-10-31T22:04:50.974Z,99817.56
2022-10-31T22:07:19.600Z,99819.28
2022-10-31T22:09:47.422Z,99815.72
2022-10-31T22:12:14.987Z,99819.84
2022-10-31T22:17:10.174Z,99827.16
2022-10-31T22:19:37.537Z,99824.38
2022-10-31T22:22:04.646Z,99821.91
2022-10-31T22:24:31.771Z,99821.66
2022-10-31T22:26:59.929Z,99825.25
2022-10-31T22:29:28.801Z,99827.94
2022-10-31T22:31:59.538Z,99832.47
2022-10-31T22:34:28.920Z,99834.91
2022-10-31T22:37:01.487Z,99820.06
2022-10-31T22:39:32.512Z,99818.50
2022-10-31T22:41:59.616Z,99815.81
2022-10-31T22:44:26.727Z,99811.31
2022-10-31T22:46:54.079Z,99814.06
2022-10-31T22:49:21.191Z,99811.47
2022-10-31T22:51:49.782Z,99801.84
2022-10-31T22:54:17.774Z,99804.50
2022-10-31T22:56:45.051Z,99801.00
2022-10-31T22:59:15.885Z,99798.41
2022-10-31T23:01:45.619Z,99794.91
2022-10-31T23:04:13.561Z,99801.72
2022-10-31T23:06:40.719Z,99809.38
2022-10-31T23:09:08.424Z,99814.00
2022-10-31T23:11:39.442Z,99801.59
2022-10-31T23:14:10.642Z,99805.75
2022-10-31T23:16:41.274Z,99806.00
2022-10-31T23:19:08.902Z,99802.44
2022-10-31T23:21:55.632Z,99809.63
2022-10-31T23:24:26.008Z,99807.94
2022-10-31T23:27:06.039Z,99804.38
2022-10-31T23:29:34.137Z,99795.53
2022-10-31T23:32:01.351Z,99799.03
2022-10-31T23:34:28.509Z,99797.19
2022-10-31T23:36:56.079Z,99800.09
2022-10-31T23:39:25.086Z,99787.72
2022-10-31T23:41:52.649Z,99797.50
2022-10-31T23:44:20.008Z,99794.94
2022-10-31T23:46:47.132Z,99794.03
2022-10-31T23:49:14.243Z,99790.56
2022-10-31T23:51:41.596Z,99794.03
2022-10-31T23:54:08.950Z,99790.41
2022-10-31T23:56:36.127Z,99794.03
2022-10-31T23:59:03.770Z,99794.75
